Decoded Metar for PAGY (SKAGWAY in AK, USA) (IATA:SGY) | Meteo·Mobile Aviation Weather
aviador You're here:

PAGY Decoded Metar

SKAGWAY in AK, USA
Report Time2018-11-21 18:35:00
UTC Time2018-11-21 18:52:00
Flight Rules mvfr MVFR
Wind010° at 03 kt
W.Decomp.*RWY 02: 2.3 kt HW 1.9 kt LCW
W.Rank010° ranks 11
Current wind is below 010° avg. (6.5)
Visibility9999 m
Phenomena:N/A
Clouds:Broken 020 Hf
Overcast 070 Hf
Expected CloudBase > 400 ft AGL from Temp-Dew spread
Ceiling2,000 ft
Temp04°C (ISA -11)
Dew Point03°C (93% RH)
AAT1.4°C
QNH997 hPa
Density Alt-659 ft
Elevation16 ft
Report Wrong Elevation
Raw Report
PAGY 211835Z AUTO 01003KT 10SM BKN020 OVC070 04/03 A2943 RMK AO2
T00440033 TSNO=

Extra information for PAGY:More info

Metar Taf Metar & Taf Last 4 Metars F.Rules Stats Wind Profile Meteogram Temp Stats Airport Information Weather charts Add Link Nearby VenuesMetar ALERT Operation Metar Decoded Social comments

AIRNAV info for PAGY